Time;durP1;ratioP1;P1;durP2;ratioP2;P2;SDS_P1;SDS_P2;PMS_P1;PMS_P2;Temp;Humidity;BMP_temperature;BMP_pressure;BME280_temperature;BME280_humidity;BME280_pressure;Samples;Min_cycle;Max_cycle;Signal;HPM_P1;HPM_P2
2021/08/31 00:02:09;;;;;;;24.42;13.40;;;;;;;;;;5090408;28;20016;-67
2021/08/31 00:04:34;;;;;;;20.73;13.23;;;;;;;;;;5072044;28;20489;-67
2021/08/31 00:06:59;;;;;;;22.10;13.77;;;;;;;;;;5089868;28;20331;-67
2021/08/31 00:09:24;;;;;;;32.10;13.97;;;;;;;;;;5075421;28;20316;-67
2021/08/31 00:11:50;;;;;;;21.50;13.38;;;;;;;;;;5075335;28;20277;-67
2021/08/31 00:14:15;;;;;;;28.67;13.38;;;;;;;;;;5090128;28;20020;-67
2021/08/31 00:16:41;;;;;;;35.90;14.82;;;;;;;;;;5089567;28;20543;-67
2021/08/31 00:19:06;;;;;;;27.48;15.40;;;;;;;;;;5106835;22;20407;-69
2021/08/31 00:21:31;;;;;;;26.58;13.98;;;;;;;;;;5088864;28;20496;-70
2021/08/31 00:23:57;;;;;;;24.10;14.20;;;;;;;;;;5088309;28;20044;-70
2021/08/31 00:26:22;;;;;;;25.47;13.33;;;;;;;;;;5074604;28;20033;-70
2021/08/31 00:28:47;;;;;;;26.23;14.50;;;;;;;;;;5074087;28;20338;-69
2021/08/31 00:31:12;;;;;;;29.87;13.93;;;;;;;;;;5074332;28;20091;-70
2021/08/31 00:33:37;;;;;;;30.85;14.10;;;;;;;;;;5073945;28;20281;-70
2021/08/31 00:36:04;;;;;;;24.95;12.98;;;;;;;;;;5097693;28;20023;-70
2021/08/31 00:38:29;;;;;;;26.50;14.25;;;;;;;;;;5115158;28;20023;-70
2021/08/31 00:40:54;;;;;;;29.35;15.27;;;;;;;;;;5113831;28;20123;-70
2021/08/31 00:43:20;;;;;;;23.35;14.05;;;;;;;;;;5114552;28;20022;-70
2021/08/31 00:45:45;;;;;;;24.40;13.90;;;;;;;;;;5114372;28;20041;-70
2021/08/31 00:48:10;;;;;;;21.45;14.45;;;;;;;;;;5114587;28;20268;-70
2021/08/31 00:50:35;;;;;;;30.15;15.63;;;;;;;;;;5113067;28;20072;-70
2021/08/31 00:53:01;;;;;;;25.33;15.70;;;;;;;;;;5093563;28;20100;-70
2021/08/31 00:55:26;;;;;;;36.15;16.92;;;;;;;;;;5094316;28;20257;-70
2021/08/31 00:57:51;;;;;;;34.60;16.50;;;;;;;;;;5093510;28;20023;-69
2021/08/31 01:00:16;;;;;;;48.72;15.63;;;;;;;;;;5093955;28;20678;-70
2021/08/31 01:02:44;;;;;;;38.17;15.88;;;;;;;;;;5093833;28;20377;-70
2021/08/31 01:05:10;;;;;;;31.13;16.08;;;;;;;;;;5093955;28;20063;-70
2021/08/31 01:07:35;;;;;;;32.40;15.07;;;;;;;;;;5093814;28;20704;-70
2021/08/31 01:10:01;;;;;;;29.15;14.85;;;;;;;;;;5093748;28;20067;-70
2021/08/31 01:12:27;;;;;;;28.42;14.52;;;;;;;;;;5098062;28;20104;-70
2021/08/31 01:14:53;;;;;;;26.70;15.63;;;;;;;;;;5114019;28;20095;-70
2021/08/31 01:17:18;;;;;;;25.30;15.95;;;;;;;;;;5113852;28;20115;-70
2021/08/31 01:19:43;;;;;;;29.93;14.87;;;;;;;;;;5101147;28;20028;-70
2021/08/31 01:22:09;;;;;;;32.63;15.65;;;;;;;;;;5093132;28;20265;-69
2021/08/31 01:24:35;;;;;;;28.70;14.50;;;;;;;;;;5093581;28;20016;-70
2021/08/31 01:27:00;;;;;;;27.75;15.82;;;;;;;;;;5093323;28;20354;-70
2021/08/31 01:29:26;;;;;;;31.60;15.15;;;;;;;;;;5093401;28;20478;-70
2021/08/31 01:31:52;;;;;;;28.73;15.15;;;;;;;;;;5093081;28;20024;-70
2021/08/31 01:34:17;;;;;;;32.95;15.93;;;;;;;;;;5092668;28;20012;-70
2021/08/31 01:36:42;;;;;;;24.93;15.20;;;;;;;;;;5093344;28;20024;-69
2021/08/31 01:39:08;;;;;;;30.27;13.73;;;;;;;;;;5093135;28;20269;-70
2021/08/31 01:41:33;;;;;;;27.85;14.68;;;;;;;;;;5093598;28;20600;-70
2021/08/31 01:43:58;;;;;;;25.75;14.23;;;;;;;;;;5074847;28;20488;-69
2021/08/31 01:46:23;;;;;;;23.37;13.90;;;;;;;;;;5093783;28;20016;-69
2021/08/31 01:48:48;;;;;;;32.83;14.85;;;;;;;;;;5092904;28;20791;-70
2021/08/31 01:51:14;;;;;;;27.50;14.77;;;;;;;;;;5093026;28;20469;-70
2021/08/31 01:53:39;;;;;;;28.48;16.10;;;;;;;;;;5092936;28;20394;-70
2021/08/31 01:56:05;;;;;;;28.27;15.77;;;;;;;;;;5092813;28;20016;-70
2021/08/31 01:58:30;;;;;;;30.77;14.88;;;;;;;;;;5092798;28;20077;-70
2021/08/31 02:00:55;;;;;;;26.63;15.10;;;;;;;;;;5092423;28;20099;-70
2021/08/31 02:03:20;;;;;;;26.10;15.60;;;;;;;;;;5097613;28;20018;-70
2021/08/31 02:05:45;;;;;;;30.83;15.73;;;;;;;;;;5113261;28;20085;-70
2021/08/31 02:08:11;;;;;;;32.72;15.93;;;;;;;;;;5100880;28;20492;-70
2021/08/31 02:10:36;;;;;;;30.23;16.15;;;;;;;;;;5092942;28;20020;-69
2021/08/31 02:13:02;;;;;;;30.77;15.98;;;;;;;;;;5092303;28;20032;-70
2021/08/31 02:15:27;;;;;;;31.60;15.85;;;;;;;;;;5092680;28;20024;-70
2021/08/31 02:17:52;;;;;;;32.75;17.23;;;;;;;;;;5091734;28;20036;-70
2021/08/31 02:20:17;;;;;;;38.67;17.08;;;;;;;;;;5100847;28;21375;-70
2021/08/31 02:22:42;;;;;;;35.77;16.77;;;;;;;;;;5092254;28;20363;-69
2021/08/31 02:25:08;;;;;;;30.77;17.08;;;;;;;;;;5092504;28;20345;-70
2021/08/31 02:27:33;;;;;;;34.55;17.90;;;;;;;;;;5092849;28;20113;-70
2021/08/31 02:29:59;;;;;;;32.92;17.00;;;;;;;;;;5092243;28;20028;-70
2021/08/31 02:32:24;;;;;;;36.60;17.67;;;;;;;;;;5092291;28;20028;-69
2021/08/31 02:34:49;;;;;;;45.20;18.27;;;;;;;;;;5091934;28;20039;-69
2021/08/31 02:37:14;;;;;;;40.00;17.07;;;;;;;;;;5092018;28;20329;-70
2021/08/31 02:39:39;;;;;;;30.45;16.50;;;;;;;;;;5092223;28;20254;-70
2021/08/31 02:42:05;;;;;;;32.15;17.40;;;;;;;;;;5091589;28;20050;-70
2021/08/31 02:44:30;;;;;;;38.85;19.52;;;;;;;;;;5091924;28;20520;-69
2021/08/31 02:46:55;;;;;;;45.40;19.30;;;;;;;;;;5090653;28;20027;-69
2021/08/31 02:49:21;;;;;;;48.53;20.80;;;;;;;;;;5091951;28;20016;-70
2021/08/31 02:51:46;;;;;;;34.17;18.90;;;;;;;;;;5091173;28;20266;-70
2021/08/31 02:54:11;;;;;;;35.60;19.17;;;;;;;;;;5091537;28;20016;-70
2021/08/31 02:56:36;;;;;;;48.88;21.20;;;;;;;;;;5101329;28;20023;-70
2021/08/31 02:59:01;;;;;;;37.67;20.20;;;;;;;;;;5111697;28;20053;-70
2021/08/31 03:03:58;;;;;;;37.72;19.90;;;;;;;;;;5111702;28;20120;-70
2021/08/31 03:06:24;;;;;;;38.42;19.02;;;;;;;;;;5105401;28;20488;-70
2021/08/31 03:08:49;;;;;;;43.85;22.65;;;;;;;;;;5091040;28;20138;-70
2021/08/31 03:11:15;;;;;;;39.50;19.85;;;;;;;;;;5073275;28;20034;-69
2021/08/31 03:13:40;;;;;;;35.97;20.08;;;;;;;;;;5091295;28;20051;-70
2021/08/31 03:16:05;;;;;;;37.30;20.50;;;;;;;;;;5091102;28;20020;-70
2021/08/31 03:18:30;;;;;;;42.60;21.30;;;;;;;;;;5091176;28;20405;-70
2021/08/31 03:20:55;;;;;;;41.38;21.27;;;;;;;;;;5091236;28;20270;-70
2021/08/31 03:23:21;;;;;;;37.47;20.20;;;;;;;;;;5090595;28;20034;-69
2021/08/31 03:25:46;;;;;;;43.83;20.02;;;;;;;;;;5090461;28;20258;-70
2021/08/31 03:28:11;;;;;;;43.83;21.63;;;;;;;;;;5091067;28;20508;-70
2021/08/31 03:30:36;;;;;;;40.17;22.42;;;;;;;;;;5092033;28;20256;-70
2021/08/31 03:33:02;;;;;;;47.42;22.50;;;;;;;;;;5091078;28;20017;-70
2021/08/31 03:35:27;;;;;;;47.13;21.67;;;;;;;;;;5091986;28;20032;-69
2021/08/31 03:37:52;;;;;;;41.60;22.73;;;;;;;;;;5091519;28;20024;-70
2021/08/31 03:40:17;;;;;;;49.78;25.15;;;;;;;;;;5091339;28;20270;-70
2021/08/31 03:42:42;;;;;;;41.77;23.03;;;;;;;;;;5091453;28;20020;-70
2021/08/31 03:45:08;;;;;;;58.40;25.87;;;;;;;;;;5091542;28;20726;-69
2021/08/31 03:47:33;;;;;;;52.25;26.13;;;;;;;;;;5091475;28;20258;-70
2021/08/31 03:49:58;;;;;;;53.13;26.95;;;;;;;;;;5092295;28;20028;-70
2021/08/31 03:52:23;;;;;;;58.83;28.87;;;;;;;;;;5091769;28;20028;-69
2021/08/31 03:54:49;;;;;;;58.00;28.80;;;;;;;;;;5090907;28;20312;-70
2021/08/31 03:57:14;;;;;;;57.45;27.02;;;;;;;;;;5090884;28;20285;-70
2021/08/31 03:59:39;;;;;;;58.10;27.57;;;;;;;;;;5071229;28;20100;-70
2021/08/31 04:02:04;;;;;;;59.07;28.10;;;;;;;;;;5070584;28;20251;-70
2021/08/31 04:04:29;;;;;;;56.28;26.52;;;;;;;;;;5070490;28;20755;-70
2021/08/31 04:06:57;;;;;;;59.70;28.23;;;;;;;;;;5070432;28;20017;-70
2021/08/31 04:09:22;;;;;;;56.35;27.50;;;;;;;;;;5074420;28;20258;-70
2021/08/31 04:11:47;;;;;;;59.88;26.92;;;;;;;;;;5090403;28;20428;-69
2021/08/31 04:14:13;;;;;;;50.77;26.00;;;;;;;;;;5090592;28;20055;-70
2021/08/31 04:16:38;;;;;;;56.10;26.83;;;;;;;;;;5090477;28;20250;-70
2021/08/31 04:19:03;;;;;;;49.42;25.77;;;;;;;;;;5090733;28;20294;-69
2021/08/31 04:21:28;;;;;;;47.30;25.30;;;;;;;;;;5090299;28;20020;-70
2021/08/31 04:23:53;;;;;;;100.80;41.08;;;;;;;;;;5090387;28;20274;-69
2021/08/31 04:26:19;;;;;;;82.90;33.43;;;;;;;;;;5090464;28;20020;-70
2021/08/31 04:28:44;;;;;;;109.80;40.10;;;;;;;;;;5072252;28;20336;-70
2021/08/31 04:31:09;;;;;;;81.03;34.25;;;;;;;;;;5091172;28;20261;-69
2021/08/31 04:33:34;;;;;;;100.28;38.33;;;;;;;;;;5090436;28;20020;-69
2021/08/31 04:35:59;;;;;;;105.65;39.08;;;;;;;;;;5090465;28;20030;-70
2021/08/31 04:38:25;;;;;;;105.82;40.75;;;;;;;;;;5090073;28;20153;-70
2021/08/31 04:40:50;;;;;;;105.37;39.37;;;;;;;;;;5090278;28;20057;-70
2021/08/31 04:43:15;;;;;;;101.53;39.00;;;;;;;;;;5089743;28;20280;-70
2021/08/31 04:45:40;;;;;;;98.18;39.03;;;;;;;;;;5090403;28;20262;-70
2021/08/31 04:48:05;;;;;;;107.18;38.72;;;;;;;;;;5090166;28;20055;-70
2021/08/31 04:50:31;;;;;;;98.10;36.88;;;;;;;;;;5089996;28;20039;-70
2021/08/31 04:52:56;;;;;;;101.13;38.05;;;;;;;;;;5089774;28;20024;-70
2021/08/31 04:55:21;;;;;;;99.90;38.55;;;;;;;;;;5090220;28;20389;-70
2021/08/31 04:57:46;;;;;;;103.82;39.58;;;;;;;;;;5091438;28;20016;-69
2021/08/31 05:00:11;;;;;;;106.87;39.83;;;;;;;;;;5091267;28;20026;-70
2021/08/31 05:02:37;;;;;;;118.90;43.13;;;;;;;;;;5089660;28;20331;-70
2021/08/31 05:05:02;;;;;;;111.85;40.47;;;;;;;;;;5090329;28;20020;-70
2021/08/31 05:07:28;;;;;;;111.88;41.35;;;;;;;;;;5089679;28;20012;-70
2021/08/31 05:09:53;;;;;;;112.85;40.97;;;;;;;;;;5074278;28;20081;-70
2021/08/31 05:12:18;;;;;;;96.50;39.73;;;;;;;;;;5093748;28;20103;-70
2021/08/31 05:14:43;;;;;;;92.70;37.28;;;;;;;;;;5075257;28;20682;-69
2021/08/31 05:17:09;;;;;;;84.77;36.87;;;;;;;;;;5093839;28;20024;-70
2021/08/31 05:19:34;;;;;;;88.78;38.83;;;;;;;;;;5094044;28;20266;-70
2021/08/31 05:22:00;;;;;;;86.78;38.97;;;;;;;;;;5093360;28;20020;-70
2021/08/31 05:24:27;;;;;;;88.80;37.00;;;;;;;;;;5093516;28;20663;-70
2021/08/31 05:26:52;;;;;;;96.47;38.65;;;;;;;;;;5093440;28;20146;-69
2021/08/31 05:29:17;;;;;;;80.37;35.87;;;;;;;;;;5093364;28;20047;-69
2021/08/31 05:31:43;;;;;;;83.67;34.63;;;;;;;;;;5093033;28;20298;-70
2021/08/31 05:34:08;;;;;;;74.85;35.35;;;;;;;;;;5093456;28;20771;-69
2021/08/31 05:36:33;;;;;;;78.63;35.40;;;;;;;;;;5093115;28;20076;-69
2021/08/31 05:38:59;;;;;;;76.57;35.70;;;;;;;;;;5093191;28;20100;-70
2021/08/31 05:41:24;;;;;;;75.72;35.28;;;;;;;;;;5093024;28;20261;-70
2021/08/31 05:43:49;;;;;;;71.67;34.87;;;;;;;;;;5092876;28;20378;-70
2021/08/31 05:46:14;;;;;;;70.43;33.80;;;;;;;;;;5074889;28;20262;-69
2021/08/31 05:48:39;;;;;;;65.03;34.57;;;;;;;;;;5092496;28;20353;-69
2021/08/31 05:51:08;;;;;;;69.22;34.95;;;;;;;;;;5075062;28;20262;-70
2021/08/31 05:53:33;;;;;;;61.63;34.05;;;;;;;;;;5092722;28;20056;-69
2021/08/31 05:55:59;;;;;;;74.45;36.00;;;;;;;;;;5097489;28;20051;-69
2021/08/31 05:58:24;;;;;;;71.43;37.63;;;;;;;;;;5113273;28;20023;-70
2021/08/31 06:00:49;;;;;;;75.20;36.63;;;;;;;;;;5113465;28;20019;-69
2021/08/31 06:03:14;;;;;;;67.43;35.43;;;;;;;;;;5107716;28;20258;-70
2021/08/31 06:05:39;;;;;;;69.35;35.47;;;;;;;;;;5074558;28;20341;-69
2021/08/31 06:08:05;;;;;;;70.28;36.15;;;;;;;;;;5092851;28;20020;-69
2021/08/31 06:10:30;;;;;;;72.65;36.60;;;;;;;;;;5092463;28;20031;-69
2021/08/31 06:12:56;;;;;;;69.60;35.35;;;;;;;;;;5092882;28;20016;-69
2021/08/31 06:15:22;;;;;;;73.82;36.85;;;;;;;;;;5092882;28;20621;-70
2021/08/31 06:17:47;;;;;;;73.97;34.70;;;;;;;;;;5119223;22;20039;-65
2021/08/31 06:20:12;;;;;;;72.93;35.13;;;;;;;;;;5112210;28;20030;-66
2021/08/31 06:22:38;;;;;;;73.85;36.67;;;;;;;;;;5112274;28;20695;-64
2021/08/31 06:25:03;;;;;;;77.07;38.08;;;;;;;;;;5112777;28;20043;-66
2021/08/31 06:27:28;;;;;;;84.05;37.63;;;;;;;;;;5111696;28;20022;-65
2021/08/31 06:29:54;;;;;;;74.90;38.00;;;;;;;;;;5088145;28;20035;-64
2021/08/31 06:32:19;;;;;;;79.97;39.35;;;;;;;;;;5074836;28;20024;-67
2021/08/31 06:34:45;;;;;;;86.95;38.58;;;;;;;;;;5087377;28;20066;-64
2021/08/31 06:37:10;;;;;;;83.00;39.10;;;;;;;;;;5088396;28;20023;-66
2021/08/31 06:39:35;;;;;;;89.17;40.17;;;;;;;;;;5088525;28;20254;-67
2021/08/31 06:42:00;;;;;;;89.70;40.77;;;;;;;;;;5091790;28;20366;-66
2021/08/31 06:44:25;;;;;;;92.90;42.55;;;;;;;;;;5085491;28;20261;-66
2021/08/31 06:46:51;;;;;;;94.67;44.00;;;;;;;;;;5090294;28;20047;-67
2021/08/31 06:49:16;;;;;;;99.20;44.30;;;;;;;;;;5091586;28;20258;-66
2021/08/31 06:51:42;;;;;;;90.40;42.63;;;;;;;;;;5091761;28;20378;-67
2021/08/31 06:54:07;;;;;;;95.35;42.20;;;;;;;;;;5091582;28;20028;-67
2021/08/31 06:56:32;;;;;;;93.45;43.38;;;;;;;;;;5091825;28;20465;-65
2021/08/31 06:58:57;;;;;;;102.30;44.25;;;;;;;;;;5091546;28;20016;-66
2021/08/31 07:01:22;;;;;;;110.43;45.08;;;;;;;;;;5086104;28;20016;-66
2021/08/31 07:03:48;;;;;;;115.50;46.47;;;;;;;;;;5090958;28;20513;-67
2021/08/31 07:06:13;;;;;;;100.60;45.27;;;;;;;;;;5091921;28;20258;-68
2021/08/31 07:08:38;;;;;;;99.82;45.10;;;;;;;;;;5083576;28;20259;-67
2021/08/31 07:11:03;;;;;;;107.15;43.67;;;;;;;;;;5079413;28;20030;-67
2021/08/31 07:13:28;;;;;;;108.47;45.20;;;;;;;;;;5076975;28;20020;-66
2021/08/31 07:15:54;;;;;;;103.30;43.30;;;;;;;;;;5086931;28;20262;-67
2021/08/31 07:18:19;;;;;;;97.63;44.17;;;;;;;;;;5090950;28;20361;-66
2021/08/31 07:20:44;;;;;;;107.07;44.78;;;;;;;;;;5089358;28;20268;-67
2021/08/31 07:23:11;;;;;;;107.75;43.30;;;;;;;;;;5090787;28;20121;-67
2021/08/31 07:25:36;;;;;;;104.35;45.60;;;;;;;;;;5091178;28;20024;-68
2021/08/31 07:28:02;;;;;;;114.13;46.85;;;;;;;;;;5091257;28;20481;-64
2021/08/31 07:30:27;;;;;;;107.15;44.05;;;;;;;;;;5090991;28;20020;-66
2021/08/31 07:32:52;;;;;;;96.25;42.40;;;;;;;;;;5089920;28;20543;-65
2021/08/31 07:35:17;;;;;;;98.60;42.67;;;;;;;;;;5091016;28;20031;-66
2021/08/31 07:37:43;;;;;;;106.27;45.77;;;;;;;;;;5090757;28;20363;-65
2021/08/31 07:40:08;;;;;;;93.43;40.70;;;;;;;;;;5090876;28;20719;-65
2021/08/31 07:42:34;;;;;;;104.45;40.78;;;;;;;;;;5089957;28;20016;-66
2021/08/31 07:45:04;;;;;;;95.18;40.15;;;;;;;;;;5091123;28;20713;-65
2021/08/31 07:47:29;;;;;;;96.28;40.42;;;;;;;;;;5090976;28;20024;-65
2021/08/31 07:49:54;;;;;;;99.80;39.47;;;;;;;;;;5090896;28;20031;-66
2021/08/31 07:52:19;;;;;;;105.63;41.30;;;;;;;;;;5090448;28;20496;-65
2021/08/31 07:54:44;;;;;;;111.07;41.27;;;;;;;;;;5090415;28;20258;-66
2021/08/31 07:57:09;;;;;;;106.30;43.23;;;;;;;;;;5090750;28;20289;-65
2021/08/31 07:59:35;;;;;;;108.87;42.50;;;;;;;;;;5090495;28;20738;-65
2021/08/31 08:02:00;;;;;;;105.50;39.63;;;;;;;;;;5090367;28;20320;-65
2021/08/31 08:04:26;;;;;;;109.22;39.45;;;;;;;;;;5090616;28;20020;-66
2021/08/31 08:06:51;;;;;;;113.03;41.70;;;;;;;;;;5090476;28;20462;-65
2021/08/31 08:09:16;;;;;;;106.53;42.07;;;;;;;;;;5090406;28;20045;-65
2021/08/31 08:11:41;;;;;;;103.03;41.63;;;;;;;;;;5090057;28;20507;-65
2021/08/31 08:14:07;;;;;;;105.00;40.70;;;;;;;;;;5090339;28;20114;-66
2021/08/31 08:16:32;;;;;;;108.95;40.92;;;;;;;;;;5090247;28;20325;-67
2021/08/31 08:18:57;;;;;;;94.68;38.65;;;;;;;;;;5090179;28;20024;-64
2021/08/31 08:21:23;;;;;;;91.03;39.40;;;;;;;;;;5089986;28;20095;-66
2021/08/31 08:23:48;;;;;;;90.05;37.70;;;;;;;;;;5089908;28;20103;-67
2021/08/31 08:26:13;;;;;;;93.65;37.03;;;;;;;;;;5090610;28;20039;-65
2021/08/31 08:28:39;;;;;;;94.97;39.55;;;;;;;;;;5090364;28;20024;-68
2021/08/31 08:31:05;;;;;;;90.90;38.83;;;;;;;;;;5090517;28;20099;-67
2021/08/31 08:33:32;;;;;;;97.60;41.97;;;;;;;;;;5089984;28;20477;-67
2021/08/31 08:35:58;;;;;;;102.93;44.33;;;;;;;;;;5090370;28;20035;-66
2021/08/31 08:38:23;;;;;;;94.05;40.78;;;;;;;;;;5090086;28;20507;-67
2021/08/31 08:40:48;;;;;;;96.85;40.22;;;;;;;;;;5090453;28;20023;-66
2021/08/31 08:43:14;;;;;;;102.70;41.70;;;;;;;;;;5090035;28;20012;-66
2021/08/31 08:45:43;;;;;;;88.07;38.47;;;;;;;;;;5093651;28;20099;-67
2021/08/31 08:48:14;;;;;;;76.63;35.97;;;;;;;;;;5094246;28;20031;-65
2021/08/31 08:50:39;;;;;;;75.97;35.90;;;;;;;;;;5094099;28;20466;-66
2021/08/31 08:53:05;;;;;;;72.45;34.00;;;;;;;;;;5093966;28;20027;-67
2021/08/31 08:55:30;;;;;;;68.30;32.97;;;;;;;;;;5094203;28;20069;-67
2021/08/31 08:57:55;;;;;;;67.68;33.78;;;;;;;;;;5093836;28;20059;-67
2021/08/31 09:00:20;;;;;;;63.40;31.13;;;;;;;;;;5093968;28;20126;-66
2021/08/31 09:02:46;;;;;;;66.65;32.67;;;;;;;;;;5093755;28;20262;-67
2021/08/31 09:05:13;;;;;;;57.33;29.73;;;;;;;;;;5094227;28;20056;-67
2021/08/31 09:07:40;;;;;;;58.97;29.50;;;;;;;;;;5093803;28;20265;-67
2021/08/31 09:10:11;;;;;;;58.63;30.83;;;;;;;;;;5094097;28;20016;-67
2021/08/31 09:12:37;;;;;;;56.13;29.55;;;;;;;;;;5093083;28;20542;-65
2021/08/31 09:15:17;;;;;;;58.60;30.85;;;;;;;;;;5093807;28;20062;-65
2021/08/31 09:18:03;;;;;;;59.65;31.20;;;;;;;;;;5093384;28;20020;-65
2021/08/31 09:20:28;;;;;;;71.03;35.58;;;;;;;;;;5093391;28;20032;-67
2021/08/31 09:22:53;;;;;;;78.43;35.77;;;;;;;;;;5075181;28;20016;-66
2021/08/31 09:25:18;;;;;;;90.15;38.00;;;;;;;;;;5092908;28;20760;-65
2021/08/31 09:27:45;;;;;;;85.37;38.00;;;;;;;;;;5093439;28;20536;-65
2021/08/31 09:30:14;;;;;;;81.07;36.90;;;;;;;;;;5092920;28;20262;-66
2021/08/31 09:32:40;;;;;;;85.85;37.38;;;;;;;;;;5092521;28;20424;-66
2021/08/31 09:35:14;;;;;;;75.30;35.60;;;;;;;;;;5093245;28;20073;-67
2021/08/31 09:37:41;;;;;;;79.82;36.85;;;;;;;;;;5093148;28;20428;-65
2021/08/31 09:40:08;;;;;;;79.22;33.67;;;;;;;;;;5093063;28;20035;-65
2021/08/31 09:42:33;;;;;;;76.18;34.92;;;;;;;;;;5093126;28;20020;-65
2021/08/31 09:45:01;;;;;;;76.32;33.38;;;;;;;;;;5093088;28;20545;-65
2021/08/31 09:47:32;;;;;;;70.32;31.73;;;;;;;;;;5093172;28;20023;-67
2021/08/31 09:49:57;;;;;;;63.03;29.52;;;;;;;;;;5093099;28;20031;-66
2021/08/31 09:52:22;;;;;;;56.87;28.33;;;;;;;;;;5092641;28;20028;-66
2021/08/31 09:54:49;;;;;;;58.22;27.98;;;;;;;;;;5092351;28;20611;-65
2021/08/31 09:57:36;;;;;;;56.20;27.15;;;;;;;;;;5092782;28;20047;-65
2021/08/31 10:00:06;;;;;;;46.50;25.45;;;;;;;;;;5092621;28;20016;-65
2021/08/31 10:02:31;;;;;;;50.87;25.03;;;;;;;;;;5092458;28;20508;-68
2021/08/31 10:04:56;;;;;;;43.30;23.52;;;;;;;;;;5092736;28;20012;-68
2021/08/31 10:07:22;;;;;;;46.67;23.52;;;;;;;;;;5092369;28;20617;-67
2021/08/31 10:09:48;;;;;;;44.75;23.35;;;;;;;;;;5092669;28;20036;-67
2021/08/31 10:12:14;;;;;;;44.10;23.25;;;;;;;;;;5092235;28;20418;-67
2021/08/31 10:14:41;;;;;;;40.90;22.02;;;;;;;;;;5092333;28;20362;-67
2021/08/31 10:17:18;;;;;;;40.92;20.67;;;;;;;;;;5091215;28;20028;-68
2021/08/31 10:19:44;;;;;;;41.40;19.15;;;;;;;;;;5090685;28;20042;-68
2021/08/31 10:22:10;;;;;;;38.47;19.95;;;;;;;;;;5092006;28;20027;-68
2021/08/31 10:24:36;;;;;;;46.28;22.95;;;;;;;;;;5092491;28;20019;-68
2021/08/31 10:27:19;;;;;;;49.65;23.75;;;;;;;;;;5092511;28;20024;-68
2021/08/31 10:29:45;;;;;;;43.08;20.73;;;;;;;;;;5092092;28;20055;-67
2021/08/31 10:32:30;;;;;;;48.17;23.97;;;;;;;;;;5091310;28;20052;-68
2021/08/31 10:34:55;;;;;;;41.72;20.77;;;;;;;;;;5092067;28;20250;-68
2021/08/31 10:37:21;;;;;;;44.17;22.30;;;;;;;;;;5092104;28;20077;-68
2021/08/31 10:39:48;;;;;;;46.58;22.58;;;;;;;;;;5092042;28;20285;-68
2021/08/31 10:42:28;;;;;;;50.88;25.30;;;;;;;;;;5091774;28;20054;-68
2021/08/31 10:44:54;;;;;;;53.33;27.45;;;;;;;;;;5092176;28;20030;-68
2021/08/31 10:47:33;;;;;;;55.70;27.88;;;;;;;;;;5091796;28;20031;-69
2021/08/31 10:49:58;;;;;;;58.75;28.58;;;;;;;;;;5090231;28;20016;-67
2021/08/31 10:52:40;;;;;;;69.60;34.23;;;;;;;;;;5091465;28;20456;-68
2021/08/31 10:55:07;;;;;;;72.13;36.60;;;;;;;;;;5091657;28;20250;-68
2021/08/31 10:57:35;;;;;;;67.78;34.30;;;;;;;;;;5091502;28;20519;-68
2021/08/31 11:00:04;;;;;;;69.82;34.78;;;;;;;;;;5091682;28;20024;-68
2021/08/31 11:02:50;;;;;;;67.25;36.60;;;;;;;;;;5091049;28;20107;-68
2021/08/31 11:05:16;;;;;;;57.95;31.98;;;;;;;;;;5091466;28;20424;-68
2021/08/31 11:07:41;;;;;;;70.97;37.95;;;;;;;;;;5090622;28;20020;-67
2021/08/31 11:10:06;;;;;;;76.60;38.40;;;;;;;;;;5091391;28;20059;-67
2021/08/31 11:12:31;;;;;;;76.10;41.88;;;;;;;;;;5091208;28;20262;-67
2021/08/31 11:14:58;;;;;;;71.30;39.08;;;;;;;;;;5091439;28;20529;-67
2021/08/31 11:17:29;;;;;;;73.97;42.03;;;;;;;;;;5091070;28;20493;-67
2021/08/31 11:20:10;;;;;;;83.20;39.95;;;;;;;;;;5090579;28;20038;-67
2021/08/31 11:22:35;;;;;;;59.45;32.75;;;;;;;;;;5090998;28;20377;-66
2021/08/31 11:25:00;;;;;;;56.33;28.03;;;;;;;;;;5091097;28;20016;-66
2021/08/31 11:27:28;;;;;;;59.40;33.50;;;;;;;;;;5073497;28;20275;-67
2021/08/31 11:29:57;;;;;;;60.42;31.88;;;;;;;;;;5070696;28;20251;-67
2021/08/31 11:32:22;;;;;;;62.53;30.58;;;;;;;;;;5070400;28;20583;-67
2021/08/31 11:35:00;;;;;;;57.17;30.17;;;;;;;;;;5073885;28;20071;-67
2021/08/31 11:37:25;;;;;;;64.07;30.10;;;;;;;;;;5090659;28;20262;-67
2021/08/31 11:39:56;;;;;;;46.47;24.67;;;;;;;;;;5090980;28;20401;-67
2021/08/31 11:42:21;;;;;;;34.75;18.42;;;;;;;;;;5090451;28;20403;-68
2021/08/31 11:44:59;;;;;;;22.00;12.27;;;;;;;;;;5091198;28;20022;-67
2021/08/31 11:47:24;;;;;;;37.88;21.92;;;;;;;;;;5090688;28;20254;-69
2021/08/31 11:49:49;;;;;;;30.38;20.00;;;;;;;;;;5090932;28;20031;-67
2021/08/31 11:52:16;;;;;;;37.90;20.50;;;;;;;;;;5090221;28;20024;-66
2021/08/31 11:54:46;;;;;;;32.63;20.98;;;;;;;;;;5090922;28;20132;-65
2021/08/31 11:57:13;;;;;;;34.80;19.85;;;;;;;;;;5090781;28;20424;-65
2021/08/31 11:59:38;;;;;;;32.20;18.00;;;;;;;;;;5090788;28;20034;-65
2021/08/31 12:02:09;;;;;;;26.02;15.68;;;;;;;;;;5089110;28;20532;-65
2021/08/31 12:04:34;;;;;;;25.50;14.10;;;;;;;;;;5090776;28;20290;-65
2021/08/31 12:07:00;;;;;;;29.80;15.63;;;;;;;;;;5090542;28;20096;-65
2021/08/31 12:09:25;;;;;;;26.10;14.77;;;;;;;;;;5090244;28;20615;-67
2021/08/31 12:11:51;;;;;;;17.10;10.27;;;;;;;;;;5090281;28;20378;-65
2021/08/31 12:14:17;;;;;;;18.67;10.70;;;;;;;;;;5092439;28;20020;-65
2021/08/31 12:16:43;;;;;;;18.60;9.75;;;;;;;;;;5081036;28;20027;-66
2021/08/31 12:19:16;;;;;;;17.00;10.02;;;;;;;;;;5119596;22;20039;-71
2021/08/31 12:21:41;;;;;;;18.08;10.00;;;;;;;;;;5099020;28;20012;-71
2021/08/31 12:24:10;;;;;;;19.23;11.60;;;;;;;;;;5096001;28;20034;-70
2021/08/31 12:26:36;;;;;;;19.52;10.35;;;;;;;;;;5108656;28;20246;-70
2021/08/31 12:29:01;;;;;;;16.55;9.90;;;;;;;;;;5093339;28;20043;-71
2021/08/31 12:31:27;;;;;;;15.68;8.23;;;;;;;;;;5090156;28;20056;-70
2021/08/31 12:33:52;;;;;;;11.90;7.70;;;;;;;;;;5090155;28;20048;-71
2021/08/31 12:36:17;;;;;;;14.98;8.00;;;;;;;;;;5090034;28;20409;-71
2021/08/31 12:38:45;;;;;;;12.10;6.73;;;;;;;;;;5090130;28;20020;-71
2021/08/31 12:41:13;;;;;;;16.58;7.13;;;;;;;;;;5089470;28;20255;-71
2021/08/31 12:44:00;;;;;;;11.13;6.32;;;;;;;;;;5089747;28;20028;-70
2021/08/31 12:46:27;;;;;;;16.70;7.22;;;;;;;;;;5090098;28;20044;-71
2021/08/31 12:49:08;;;;;;;10.55;6.00;;;;;;;;;;5090029;28;20446;-70
2021/08/31 12:51:36;;;;;;;14.30;6.45;;;;;;;;;;5090094;28;20144;-71
2021/08/31 12:54:02;;;;;;;13.88;6.53;;;;;;;;;;5089897;28;20099;-71
2021/08/31 12:56:28;;;;;;;12.75;6.22;;;;;;;;;;5090271;28;20048;-71
2021/08/31 12:59:03;;;;;;;12.95;6.55;;;;;;;;;;5090043;28;20020;-71
2021/08/31 13:01:29;;;;;;;14.90;6.55;;;;;;;;;;5090083;28;20037;-71
2021/08/31 13:03:55;;;;;;;13.40;6.55;;;;;;;;;;5090150;28;20012;-71
2021/08/31 13:06:40;;;;;;;12.68;6.78;;;;;;;;;;5090082;28;20024;-71
2021/08/31 13:09:16;;;;;;;10.43;6.20;;;;;;;;;;5090386;28;20066;-71
2021/08/31 13:11:46;;;;;;;11.07;6.53;;;;;;;;;;5072056;28;20031;-71
2021/08/31 13:14:14;;;;;;;12.30;5.82;;;;;;;;;;5090208;28;20012;-70
2021/08/31 13:16:39;;;;;;;12.27;6.65;;;;;;;;;;5090093;28;20027;-71
2021/08/31 13:19:04;;;;;;;12.57;6.38;;;;;;;;;;5089630;28;20024;-71
2021/08/31 13:21:30;;;;;;;12.20;6.25;;;;;;;;;;5089880;28;20047;-71
2021/08/31 13:23:55;;;;;;;14.55;6.30;;;;;;;;;;5089800;28;20016;-71
2021/08/31 13:26:22;;;;;;;11.98;5.93;;;;;;;;;;5089315;28;20394;-71
2021/08/31 13:28:47;;;;;;;14.45;6.47;;;;;;;;;;5089405;28;20019;-71
2021/08/31 13:31:13;;;;;;;13.38;6.07;;;;;;;;;;5092196;28;20560;-71
2021/08/31 13:33:38;;;;;;;13.27;6.37;;;;;;;;;;5093259;28;20028;-71
2021/08/31 13:36:03;;;;;;;14.02;5.43;;;;;;;;;;5093466;28;20254;-71
2021/08/31 13:38:28;;;;;;;9.73;6.28;;;;;;;;;;5093042;28;20127;-71
2021/08/31 13:40:54;;;;;;;10.57;5.67;;;;;;;;;;5093123;28;20028;-71
2021/08/31 13:43:19;;;;;;;11.55;6.30;;;;;;;;;;5092918;28;20337;-71
2021/08/31 13:45:44;;;;;;;11.45;6.15;;;;;;;;;;5093513;28;20027;-71
2021/08/31 13:48:10;;;;;;;10.93;5.72;;;;;;;;;;5093083;28;20382;-71
2021/08/31 13:50:35;;;;;;;13.68;5.45;;;;;;;;;;5093193;28;20471;-71
2021/08/31 13:53:00;;;;;;;11.93;5.82;;;;;;;;;;5092561;28;20035;-71
2021/08/31 13:55:30;;;;;;;14.77;6.43;;;;;;;;;;5092661;28;20020;-71
2021/08/31 13:57:56;;;;;;;9.48;5.57;;;;;;;;;;5091585;28;20104;-72
2021/08/31 14:00:21;;;;;;;11.57;5.83;;;;;;;;;;5091977;28;20052;-71
2021/08/31 14:02:46;;;;;;;10.83;6.43;;;;;;;;;;5092650;28;20027;-71
2021/08/31 14:05:11;;;;;;;9.43;5.77;;;;;;;;;;5092820;28;20724;-71
2021/08/31 14:07:36;;;;;;;12.80;6.20;;;;;;;;;;5092857;28;20044;-71
2021/08/31 14:10:02;;;;;;;14.18;6.53;;;;;;;;;;5092688;28;20603;-71
2021/08/31 14:12:27;;;;;;;7.35;5.65;;;;;;;;;;5092144;28;20028;-71
2021/08/31 14:14:52;;;;;;;10.48;6.07;;;;;;;;;;5091341;28;20031;-71